Airfield :
LOGIN :

Register | Disclaimer

   EN    FR    IT 

 










Legend :    VFR   Marginal VFR   IFR   Intensive IFR   Very Intensive IFR
Visi :
Ceiling :
>= 8 km
>= 3000ft
5 to 8 km
1000 to 3000 ft
1500m to 5 km
500 to 1000 ft
800 to 1500m
200 to 500 ft
< 800m
< 200 ft
Symbols :   Thunderstorms  Fog  Heavy snow  Heavy precipitations  Wind > 20 kt
SIGMETs :     Misc.  Thunderstorms  Icing  Turbulence  Mountain Waves  Volcanic Ashes







- Airport Elevation : 102 ft
- IATA code : KEL


EDHK - Holtenau

EXPIRED METARs :
  • 131450Z 18012KT 5000 -RA OVC004 01/00 Q0994
  • 131420Z 18012KT 6000 -SN OVC005 01/00 Q0995
  • 131350Z 18012KT 150V210 5000 -RASN OVC005 01/00 Q0995

TAF TAF EDHK
Valid from the 13 at 15:00 until the 13 at 18:00 UTC


131400Z 1315/1318 18011KT 5000 -RASN OVC007
TEMPO 1315/1318 18015G25KT 2500 -SNRA BKN004
No reported NOTAMs for that airfield.



MET'MAP, your aeronautical weather chart ! - Copyright ORBIFLY December 2007 - Disclaimer

ORBIFLY MET'MAP TEAM :

Programming & Development : Alexandra Zaïnal
Concept & Development : Baudouin d'Aumeries
Co-Development & Prog : Marc-Olivier Méhu
Technical & hardware support : Manuel Goepfert

Contact : metmap@orbifly.com




SOURCES & CREDITS :

   NOAA